LEZG Airport Information

Runway Information
Runway 12L Length 9843 ft width 148 ft
Elevation 823 ft Threshold 0 ft Heading 120
Runway 30R Length 9843 ft Width 148 ft
Elevation 834 ft Threshold 0 ft Heading 300
Runway 12R Length 12198 ft width 148 ft
Elevation 834 ft Threshold 0 ft Heading 120
Runway 30L Length 12198 ft Width 148 ft
Elevation 863 ft Threshold 0 ft Heading 300
Airport Frequencies
Type APP Name APP Frequency 119.3 MHZ
Type GND Name GND Frequency 118.1 MHZ
Type TWR Name TWR Frequency 118.1 MHZ
Airport Navaids
Type VOR-DME Name Zaragoza Frequency 113000 KHZ
Type NDB Name Zaragoza Frequency 389 KHZ
Type TACAN Name Zaragoza Frequency 133700 KHZ
Type NDB Name Zaragoza Frequency 348 KHZ
Airport Weather Information & NOTAM
ADDS - METARS form results

(2335 UTC 20 January 2019)
Data provider http://aviationweather.gov/metar/data/
 
METAR text: LEZG 202330Z 27014KT CAVOK 06/03 Q1017
Conditions at: LEZG (ZARAGOZA (MIL/CI, ES) observed 2330 UTC 20 January 2019
Temperature: 6.0°C (43°F)
Dewpoint: 3.0°C (37°F) [RH = 81%]
Pressure (altimeter): 30.03 inches Hg (1017.0 mb)
Winds: from the W (270 degrees) at 16 MPH (14 knots; 7.2 m/s)
Visibility: 6 or more miles (10+ km)
Ceiling: ceiling and visibility are OK
Clouds: unknown
Weather: no significant weather observed at this time

METAR text: LEZG 202300Z 27013KT CAVOK 06/03 Q1017
Conditions at: LEZG (ZARAGOZA (MIL/CI, ES) observed 2300 UTC 20 January 2019
Temperature: 6.0°C (43°F)
Dewpoint: 3.0°C (37°F) [RH = 81%]
Pressure (altimeter): 30.03 inches Hg (1017.0 mb)
Winds: from the W (270 degrees) at 15 MPH (13 knots; 6.7 m/s)
Visibility: 6 or more miles (10+ km)
Ceiling: ceiling and visibility are OK
Clouds: unknown
Weather: no significant weather observed at this time

Forecast for: LEZG (ZARAGOZA (MIL/CI, ES)
Text: TAF LEZG 202300Z 2100/2124 30014KT 9999 FEW030 TX09/2114Z TN02/2107Z
Forecast period: 0000 UTC 21 January 2019 to 0000 UTC 22 January 2019
Forecast type: FROM: standard forecast or significant change
Winds: from the WNW (300 degrees) at 16 MPH (14 knots; 7.2 m/s)
Visibility: 6 or more miles 10+ km)
Ceiling: at least 12,000 feet AGL
Clouds: few clouds at 3000 feet AGL
Weather: no significant weather forecast for this period
Text: TEMPO 2107/2117 31018G30KT
Forecast period: 0700 to 1700 UTC 21 January 2019
Forecast type: TEMPORARY: The following changes expected for less than half the time period
Winds: from the NW (310 degrees) at 21 MPH (18 knots; 9.3 m/s)
gusting to 34 MPH (30 knots; 15.4 m/s)
Visibility: missing
Ceiling: unknown
Clouds: missing
Weather: no significant weather forecast for this period